Time;durP1;ratioP1;P1;durP2;ratioP2;P2;SDS_P1;SDS_P2;PMS_P1;PMS_P2;Temp;Humidity;BMP_temperature;BMP_pressure;BME280_temperature;BME280_humidity;BME280_pressure;Samples;Min_cycle;Max_cycle;Signal;HPM_P1;HPM_P2
2023/01/17 00:01:27;;;;;;;58.65;35.83;;;7.10;46.60;;;;;;5028362;28;20041;-73
2023/01/17 00:12:11;;;;;;;;;;;7.00;48.90;;;;;;5032964;28;20042;-72
2023/01/17 00:14:38;;;;;;;62.88;37.80;;;7.30;1.00;;;;;;5032697;28;19924;-72
2023/01/17 00:17:06;;;;;;;71.35;40.85;;;7.30;1.00;;;;;;5032267;28;20481;-72
2023/01/17 01:34:37;;;;;;;44.80;23.50;;;8.30;99.90;;;;;;5031123;28;20052;-72
2023/01/17 01:37:04;;;;;;;104.25;49.50;;;8.50;99.90;;;;;;5031576;28;20584;-73
2023/01/17 01:39:31;;;;;;;270.08;99.72;;;8.50;99.90;;;;;;5031263;28;20489;-73
2023/01/17 01:41:59;;;;;;;146.65;67.60;;;8.30;1.00;;;;;;5031277;28;20401;-73
2023/01/17 01:44:52;;;;;;;148.93;70.28;;;8.10;1.00;;;;;;5032742;28;20052;-72
2023/01/17 01:47:26;;;;;;;160.18;71.13;;;7.80;1.00;;;;;;5017558;28;20566;-73
2023/01/17 01:49:53;;;;;;;142.07;67.82;;;7.70;1.00;;;;;;5033585;28;20385;-74
2023/01/17 01:52:24;;;;;;;128.15;62.45;;;7.60;1.00;;;;;;5031089;28;20084;-73
2023/01/17 01:54:56;;;;;;;141.13;64.50;;;7.60;1.00;;;;;;5030938;28;20044;-74
2023/01/17 01:57:29;;;;;;;122.53;58.80;;;7.50;1.00;;;;;;5030338;28;20045;-73
2023/01/17 02:00:04;;;;;;;114.50;57.20;;;7.50;99.90;;;;;;5030899;28;20053;-73
2023/01/17 02:02:39;;;;;;;129.05;59.33;;;7.40;22.80;;;;;;5031096;28;20050;-73
2023/01/17 02:05:08;;;;;;;117.10;56.67;;;7.40;99.90;;;;;;5031971;28;20053;-73
2023/01/17 02:07:41;;;;;;;78.78;38.97;;;7.50;99.90;;;;;;5031038;28;20052;-72
2023/01/17 02:10:10;;;;;;;84.57;42.22;;;7.50;99.90;;;;;;5030788;28;20535;-73
2023/01/17 02:12:38;;;;;;;90.80;44.58;;;7.60;99.90;;;;;;5031127;28;20045;-74
2023/01/17 02:15:08;;;;;;;181.30;74.47;;;7.60;99.90;;;;;;5030979;28;20072;-71
2023/01/17 02:17:43;;;;;;;235.73;88.40;;;7.60;99.90;;;;;;5030199;28;20049;-72
2023/01/17 02:20:40;;;;;;;152.75;68.70;;;7.60;99.90;;;;;;5030177;28;20038;-73
2023/01/17 02:23:19;;;;;;;;;;;7.60;99.90;;;;;;5030698;28;20045;-73
2023/01/17 02:26:10;;;;;;;133.40;64.55;;;7.50;99.90;;;;;;5031656;22;19928;-76
2023/01/17 02:28:50;;;;;;;133.10;63.58;;;7.40;99.90;;;;;;5013507;28;20056;-76
2023/01/17 02:31:26;;;;;;;120.53;61.25;;;7.40;99.90;;;;;;4997019;28;20046;-76
2023/01/17 02:33:58;;;;;;;;;;;7.30;99.90;;;;;;5013705;28;20042;-77
2023/01/17 02:36:31;;;;;;;130.05;66.90;;;7.30;99.90;;;;;;5013012;28;19929;-75
2023/01/17 02:39:06;;;;;;;136.25;71.30;;;7.30;99.90;;;;;;5019931;28;20052;-74
2023/01/17 02:41:36;;;;;;;135.65;71.68;;;7.30;99.90;;;;;;5021461;28;20046;-76
2023/01/17 02:44:08;;;;;;;127.05;67.35;;;7.30;99.90;;;;;;5033728;28;20064;-78
2023/01/17 02:46:45;;;;;;;124.32;64.10;;;7.40;99.90;;;;;;5021429;28;20132;-77
2023/01/17 02:49:13;;;;;;;129.73;62.90;;;7.30;99.90;;;;;;5012287;28;20050;-76
2023/01/17 02:52:06;;;;;;;130.82;68.65;;;7.30;99.90;;;;;;5010968;28;20050;-76
2023/01/17 02:54:53;;;;;;;139.55;74.80;;;7.40;99.90;;;;;;5016080;28;20042;-76
2023/01/17 02:57:36;;;;;;;120.50;66.65;;;7.40;99.90;;;;;;5025529;28;20057;-76
2023/01/17 03:00:14;;;;;;;115.45;63.30;;;7.40;99.90;;;;;;5018478;28;20418;-76
2023/01/17 03:02:50;;;;;;;114.95;64.05;;;7.50;99.90;;;;;;5023672;28;20061;-75
2023/01/17 03:05:23;;;;;;;110.47;59.28;;;7.50;99.90;;;;;;5027409;28;20069;-74
2023/01/17 03:07:52;;;;;;;104.72;55.65;;;7.40;99.90;;;;;;5032642;28;20101;-76
2023/01/17 03:10:21;;;;;;;96.32;52.20;;;7.30;99.90;;;;;;5032243;28;20041;-75
2023/01/17 03:12:49;;;;;;;99.43;55.30;;;7.20;99.90;;;;;;5012707;28;20045;-77
2023/01/17 03:15:17;;;;;;;87.93;46.75;;;7.10;99.90;;;;;;5011388;28;20064;-78
2023/01/17 03:17:49;;;;;;;95.07;52.53;;;7.10;99.90;;;;;;5012287;28;20042;-78
2023/01/17 03:20:17;;;;;;;108.32;53.15;;;7.10;99.90;;;;;;5012029;28;20505;-77
2023/01/17 03:22:44;;;;;;;90.18;49.38;;;7.20;99.90;;;;;;5014280;28;20478;-76
2023/01/17 03:25:12;;;;;;;100.88;50.72;;;7.20;99.90;;;;;;5012112;28;20145;-77
2023/01/17 03:27:39;;;;;;;92.82;50.08;;;7.20;99.90;;;;;;5009606;28;20042;-76
2023/01/17 03:30:08;;;;;;;94.28;50.42;;;7.20;99.90;;;;;;5009301;28;20042;-77
2023/01/17 03:32:35;;;;;;;95.53;53.03;;;7.20;99.90;;;;;;5009792;28;20037;-77
2023/01/17 03:35:05;;;;;;;89.30;51.00;;;7.20;99.90;;;;;;5010136;28;20410;-79
2023/01/17 03:37:32;;;;;;;101.35;52.60;;;7.30;99.90;;;;;;5009669;28;20124;-75
2023/01/17 03:40:00;;;;;;;96.15;53.58;;;7.20;99.90;;;;;;5010217;28;20466;-76
2023/01/17 03:42:27;;;;;;;93.82;52.65;;;7.10;99.90;;;;;;5011428;28;20056;-76
2023/01/17 03:44:55;;;;;;;91.53;48.95;;;7.20;99.90;;;;;;4994057;28;20056;-76
2023/01/17 03:47:22;;;;;;;87.50;48.30;;;7.10;99.90;;;;;;5011886;28;20505;-75
2023/01/17 03:49:51;;;;;;;86.35;49.70;;;7.10;99.90;;;;;;5010786;28;20046;-76
2023/01/17 03:52:19;;;;;;;93.20;51.90;;;7.10;99.90;;;;;;5011229;28;20052;-77
2023/01/17 03:54:47;;;;;;;87.32;49.38;;;7.10;99.90;;;;;;5010937;28;20046;-76
2023/01/17 03:57:14;;;;;;;86.78;48.22;;;7.20;99.90;;;;;;5010613;28;20341;-76
2023/01/17 03:59:42;;;;;;;71.80;43.88;;;7.10;99.90;;;;;;5009759;28;20045;-78
2023/01/17 04:02:09;;;;;;;67.18;41.72;;;7.10;99.90;;;;;;5010728;28;20517;-77
2023/01/17 04:04:36;;;;;;;74.10;42.40;;;7.10;99.90;;;;;;5010059;28;20046;-77
2023/01/17 04:07:04;;;;;;;88.95;53.10;;;7.10;99.90;;;;;;5010666;28;20045;-76
2023/01/17 04:09:34;;;;;;;85.53;50.65;;;7.00;99.90;;;;;;5014779;28;20034;-76
2023/01/17 04:12:02;;;;;;;84.90;49.00;;;6.90;99.90;;;;;;5019204;28;20048;-76
2023/01/17 04:14:29;;;;;;;79.53;46.70;;;6.90;99.90;;;;;;5009696;28;20099;-76
2023/01/17 04:16:57;;;;;;;81.10;47.05;;;6.90;99.90;;;;;;5009066;28;20046;-77
2023/01/17 04:19:24;;;;;;;77.97;47.67;;;6.90;99.90;;;;;;4992152;28;20046;-75
2023/01/17 04:21:51;;;;;;;81.97;45.92;;;6.90;99.90;;;;;;5009213;28;20066;-77
2023/01/17 04:24:19;;;;;;;73.15;42.78;;;7.00;99.90;;;;;;5009761;28;20096;-78
2023/01/17 04:26:48;;;;;;;60.35;35.45;;;7.00;99.90;;;;;;5010335;28;20050;-75
2023/01/17 04:29:15;;;;;;;60.33;33.88;;;7.00;99.90;;;;;;5018642;28;20050;-76
2023/01/17 04:31:42;;;;;;;60.58;36.03;;;7.00;99.90;;;;;;5021886;28;20034;-76
2023/01/17 04:34:10;;;;;;;66.20;37.83;;;7.00;99.90;;;;;;5012477;28;20045;-77
2023/01/17 04:36:37;;;;;;;69.70;43.08;;;7.00;99.90;;;;;;5011903;28;20059;-77
2023/01/17 04:39:05;;;;;;;74.40;44.33;;;6.90;99.90;;;;;;5011535;28;20046;-78
2023/01/17 04:41:32;;;;;;;73.25;44.30;;;6.80;99.90;;;;;;4993779;28;20049;-75
2023/01/17 04:44:01;;;;;;;58.20;34.45;;;6.80;99.90;;;;;;5022471;28;20046;-76
2023/01/17 04:46:32;;;;;;;72.22;41.05;;;6.80;99.90;;;;;;5022216;28;20050;-73
2023/01/17 04:48:59;;;;;;;64.45;38.33;;;6.80;99.90;;;;;;5016236;28;20164;-75
2023/01/17 04:51:27;;;;;;;55.38;32.92;;;6.80;99.90;;;;;;5011059;28;20052;-76
2023/01/17 04:53:54;;;;;;;48.10;30.10;;;6.90;99.90;;;;;;5011641;28;20502;-75
2023/01/17 04:56:22;;;;;;;58.17;33.97;;;6.90;99.90;;;;;;5013956;28;20192;-76
2023/01/17 04:58:50;;;;;;;59.42;35.83;;;6.90;99.90;;;;;;4998113;28;20054;-75
2023/01/17 05:01:19;;;;;;;59.65;36.13;;;6.90;99.90;;;;;;5015716;28;20084;-76
2023/01/17 05:03:46;;;;;;;64.07;38.25;;;6.90;99.90;;;;;;5017367;28;20046;-77
2023/01/17 05:06:14;;;;;;;66.90;41.38;;;6.90;99.90;;;;;;5014302;28;20050;-76
2023/01/17 05:08:41;;;;;;;67.43;42.50;;;7.00;99.90;;;;;;5014365;28;20482;-74
2023/01/17 05:11:09;;;;;;;61.72;35.30;;;7.00;99.90;;;;;;5017295;28;20057;-75
2023/01/17 05:13:36;;;;;;;77.68;46.10;;;7.00;99.90;;;;;;5030442;28;20038;-76
2023/01/17 05:16:05;;;;;;;81.40;49.50;;;7.10;99.90;;;;;;5020550;28;20065;-74
2023/01/17 05:18:34;;;;;;;79.13;49.17;;;7.10;99.90;;;;;;5033000;28;20045;-77
2023/01/17 05:21:02;;;;;;;68.75;41.67;;;6.90;99.90;;;;;;5021562;28;20057;-76
2023/01/17 05:23:29;;;;;;;74.53;44.53;;;6.90;99.90;;;;;;5014104;28;20050;-75
2023/01/17 05:25:57;;;;;;;72.18;45.70;;;6.80;99.90;;;;;;5013103;28;20056;-76
2023/01/17 05:28:24;;;;;;;71.35;43.22;;;6.70;99.90;;;;;;5014295;28;20144;-77
2023/01/17 05:30:52;;;;;;;76.03;45.08;;;6.70;99.90;;;;;;5014120;28;20045;-75
2023/01/17 05:33:19;;;;;;;79.10;45.75;;;6.70;99.90;;;;;;5013764;28;20077;-74
2023/01/17 05:35:48;;;;;;;73.07;39.40;;;6.70;99.90;;;;;;5013785;28;20062;-77
2023/01/17 05:38:16;;;;;;;66.43;40.42;;;6.80;99.90;;;;;;5015781;28;20056;-74
2023/01/17 05:40:43;;;;;;;53.90;32.80;;;6.90;99.90;;;;;;5030372;28;20038;-72
2023/01/17 05:43:10;;;;;;;56.38;33.10;;;6.90;99.90;;;;;;5020632;28;20050;-76
2023/01/17 05:45:38;;;;;;;57.42;36.58;;;6.90;99.90;;;;;;5021706;28;20053;-75
2023/01/17 05:48:06;;;;;;;69.05;40.85;;;6.80;99.90;;;;;;5008492;28;20086;-75
2023/01/17 05:50:36;;;;;;;64.53;37.88;;;6.80;99.90;;;;;;5016761;28;20045;-75
2023/01/17 05:53:07;;;;;;;68.90;41.08;;;6.90;99.90;;;;;;5012989;28;20050;-78
2023/01/17 05:55:36;;;;;;;66.00;38.88;;;7.00;99.90;;;;;;4995269;28;20046;-74
2023/01/17 05:58:04;;;;;;;64.45;40.13;;;7.00;99.90;;;;;;4995878;28;20413;-76
2023/01/17 06:00:32;;;;;;;60.97;40.53;;;7.00;99.90;;;;;;4993637;28;20042;-75
2023/01/17 06:03:00;;;;;;;62.70;39.55;;;7.10;99.90;;;;;;5009923;28;20446;-78
2023/01/17 06:05:29;;;;;;;76.38;42.95;;;7.10;99.90;;;;;;5012037;28;20088;-76
2023/01/17 06:07:57;;;;;;;81.20;50.42;;;7.00;99.90;;;;;;5011793;28;20092;-77
2023/01/17 06:10:28;;;;;;;81.25;49.65;;;7.10;99.90;;;;;;4994022;28;20041;-75
2023/01/17 06:13:04;;;;;;;78.72;49.22;;;7.10;99.90;;;;;;5013429;28;20073;-73
2023/01/17 06:15:32;;;;;;;77.20;48.38;;;7.10;99.90;;;;;;5026180;28;20038;-77
2023/01/17 06:18:04;;;;;;;82.60;47.72;;;7.10;99.90;;;;;;5007611;28;20277;-75
2023/01/17 06:20:32;;;;;;;35.10;22.33;;;7.10;99.90;;;;;;5011304;28;20084;-76
2023/01/17 06:23:01;;;;;;;35.97;21.90;;;7.20;99.90;;;;;;5012936;28;20049;-76
2023/01/17 06:25:30;;;;;;;28.35;18.90;;;7.30;99.90;;;;;;5010467;28;20046;-76
2023/01/17 06:27:57;;;;;;;28.88;16.70;;;7.40;99.90;;;;;;4994240;28;20053;-75
2023/01/17 06:30:25;;;;;;;16.05;9.52;;;7.60;1.00;;;;;;5011393;28;20468;-75
2023/01/17 06:32:53;;;;;;;14.93;8.07;;;7.70;99.90;;;;;;5011287;28;20053;-76
2023/01/17 06:35:21;;;;;;;14.23;9.02;;;7.80;1.00;;;;;;5011516;28;20046;-76
2023/01/17 06:37:52;;;;;;;14.65;9.10;;;7.90;99.90;;;;;;5012259;28;20092;-75
2023/01/17 06:40:20;;;;;;;17.58;10.57;;;8.00;1.00;;;;;;5012346;28;20088;-76
2023/01/17 06:42:49;;;;;;;20.35;12.05;;;8.00;99.90;;;;;;5017752;28;20102;-77
2023/01/17 06:45:16;;;;;;;19.73;11.13;;;8.10;1.00;;;;;;5032971;28;20056;-76
2023/01/17 06:47:44;;;;;;;16.73;10.60;;;8.10;99.90;;;;;;5032106;28;20105;-76
2023/01/17 06:50:13;;;;;;;38.63;21.00;;;8.20;82.00;;;;;;5012317;28;20042;-76
2023/01/17 06:52:41;;;;;;;108.07;56.15;;;8.20;99.90;;;;;;5011186;28;20536;-75
2023/01/17 06:55:10;;;;;;;72.78;39.30;;;8.20;1.00;;;;;;4993240;28;20109;-77
2023/01/17 06:57:38;;;;;;;67.20;38.45;;;8.10;1.00;;;;;;5010656;28;20390;-77
2023/01/17 07:00:08;;;;;;;45.40;29.17;;;8.10;99.90;;;;;;5009984;28;20050;-76
2023/01/17 07:02:35;;;;;;;37.13;22.60;;;8.10;1.00;;;;;;5010338;28;20041;-76
2023/01/17 07:05:03;;;;;;;47.45;29.35;;;8.00;9.00;;;;;;5010622;28;20050;-75
2023/01/17 07:07:33;;;;;;;26.85;17.67;;;8.00;25.30;;;;;;5011335;28;20045;-75
2023/01/17 07:10:02;;;;;;;45.33;29.63;;;8.00;1.00;;;;;;5018543;28;20052;-77
2023/01/17 07:12:29;;;;;;;55.30;34.63;;;8.10;1.00;;;;;;5011848;28;20050;-78
2023/01/17 07:14:57;;;;;;;52.42;33.72;;;8.10;1.00;;;;;;5009942;28;20042;-78
2023/01/17 07:17:25;;;;;;;73.32;46.38;;;8.10;1.00;;;;;;5009041;28;20052;-77
2023/01/17 07:19:54;;;;;;;52.20;34.53;;;8.10;1.00;;;;;;5008833;28;20038;-77
2023/01/17 07:22:21;;;;;;;49.67;31.67;;;8.00;99.90;;;;;;5010514;28;20041;-78
2023/01/17 07:24:49;;;;;;;93.20;58.72;;;8.00;1.00;;;;;;5009800;28;20257;-79
2023/01/17 07:27:17;;;;;;;72.15;45.63;;;8.00;1.00;;;;;;5009339;28;20300;-77
2023/01/17 07:29:44;;;;;;;81.85;51.80;;;7.90;1.00;;;;;;5009473;28;20563;-76
2023/01/17 07:32:12;;;;;;;87.80;53.97;;;7.80;99.90;;;;;;5009935;28;20045;-77
2023/01/17 07:34:41;;;;;;;78.90;49.20;;;7.70;99.90;;;;;;4992999;28;20052;-75
2023/01/17 07:37:08;;;;;;;63.90;38.90;;;7.80;1.00;;;;;;5009624;28;20046;-76
2023/01/17 07:39:36;;;;;;;62.22;37.95;;;7.80;99.90;;;;;;5009242;28;20121;-77
2023/01/17 07:42:03;;;;;;;75.55;44.97;;;7.80;99.90;;;;;;5009630;28;20034;-77
2023/01/17 07:44:30;;;;;;;102.43;62.03;;;7.90;1.00;;;;;;5010959;28;20041;-78
2023/01/17 07:46:58;;;;;;;97.57;60.63;;;7.90;1.00;;;;;;4994360;28;20037;-74
2023/01/17 07:49:25;;;;;;;104.57;64.20;;;7.90;99.90;;;;;;5019492;28;20045;-76
2023/01/17 07:51:55;;;;;;;98.88;59.08;;;8.00;1.00;;;;;;5009262;28;20053;-78
2023/01/17 07:54:22;;;;;;;100.65;63.85;;;8.10;1.00;;;;;;5019779;28;20064;-77
2023/01/17 07:56:50;;;;;;;88.30;54.45;;;8.30;1.00;;;;;;5014108;28;20041;-75
2023/01/17 07:59:17;;;;;;;81.18;50.25;;;8.40;1.00;;;;;;5007787;28;20050;-76
2023/01/17 08:01:45;;;;;;;100.03;64.40;;;8.50;1.00;;;;;;5010235;28;20053;-76
2023/01/17 08:04:13;;;;;;;109.72;71.93;;;8.60;99.90;;;;;;5011716;28;20038;-75
2023/01/17 08:06:46;;;;;;;119.80;78.93;;;8.70;99.90;;;;;;5009827;28;20054;-76
2023/01/17 08:09:15;;;;;;;140.15;91.63;;;8.90;1.00;;;;;;5008785;28;20606;-77
2023/01/17 08:11:43;;;;;;;153.20;100.07;;;8.90;99.90;;;;;;5007497;28;20042;-80
2023/01/17 08:14:10;;;;;;;67.68;44.83;;;8.90;1.00;;;;;;5009209;28;20492;-76
2023/01/17 08:16:38;;;;;;;81.63;55.47;;;8.90;99.90;;;;;;5009183;28;20050;-78
2023/01/17 08:19:06;;;;;;;51.17;35.13;;;9.00;1.00;;;;;;5009588;28;20038;-76
2023/01/17 08:21:33;;;;;;;73.63;43.15;;;9.20;1.00;;;;;;5009071;28;20038;-77
2023/01/17 08:24:01;;;;;;;63.95;42.75;;;9.30;99.90;;;;;;5012389;28;20096;-77
2023/01/17 08:26:30;;;;;;;64.05;44.13;;;9.40;99.90;;;;;;5028290;23;20072;-73
2023/01/17 08:28:59;;;;;;;118.80;79.80;;;9.60;51.20;;;;;;5035349;28;20037;-71
2023/01/17 08:31:27;;;;;;;155.27;106.20;;;9.80;6.40;;;;;;5019448;28;20087;-72
2023/01/17 08:33:56;;;;;;;153.70;101.75;;;10.00;20.90;;;;;;5038518;28;20489;-73
2023/01/17 08:36:26;;;;;;;135.30;90.65;;;10.10;1.00;;;;;;5042840;28;20075;-73
2023/01/17 08:38:54;;;;;;;76.57;52.22;;;10.30;1.00;;;;;;5040151;28;20053;-73
2023/01/17 08:41:22;;;;;;;78.18;50.03;;;10.40;1.00;;;;;;5040103;28;20067;-72
2023/01/17 08:43:52;;;;;;;67.97;44.65;;;10.50;1.00;;;;;;5041700;28;20401;-73
2023/01/17 08:46:19;;;;;;;64.40;42.10;;;10.60;99.90;;;;;;5043070;28;20397;-74
2023/01/17 08:48:47;;;;;;;51.08;34.45;;;10.80;99.90;;;;;;5039020;28;20428;-73
2023/01/17 08:51:14;;;;;;;75.50;48.83;;;10.80;99.90;;;;;;5022682;28;20049;-72
2023/01/17 08:53:42;;;;;;;58.88;38.55;;;10.80;99.90;;;;;;5045720;28;20103;-75
2023/01/17 08:56:10;;;;;;;63.20;42.22;;;10.90;99.90;;;;;;5047792;28;20038;-74
2023/01/17 08:58:37;;;;;;;68.10;45.55;;;10.80;99.90;;;;;;5042850;28;20455;-74
2023/01/17 09:01:06;;;;;;;56.55;37.65;;;10.80;99.90;;;;;;5043249;28;20064;-73
2023/01/17 09:03:35;;;;;;;21.33;14.00;;;10.90;99.90;;;;;;5040938;28;20034;-73
2023/01/17 09:06:04;;;;;;;10.38;6.80;;;11.00;99.90;;;;;;5042377;28;20493;-73
2023/01/17 09:08:32;;;;;;;13.10;6.80;;;11.10;1.00;;;;;;5024995;28;20057;-73
2023/01/17 09:11:02;;;;;;;10.07;7.18;;;11.00;1.00;;;;;;5041414;28;20401;-74
2023/01/17 09:13:29;;;;;;;8.52;5.13;;;11.10;1.00;;;;;;5041065;28;20151;-73
2023/01/17 09:15:57;;;;;;;13.82;7.70;;;11.20;1.00;;;;;;5043349;28;20389;-73
2023/01/17 09:18:27;;;;;;;5.47;3.70;;;11.30;1.00;;;;;;5044468;28;20044;-73
2023/01/17 09:20:57;;;;;;;5.90;3.70;;;11.40;1.00;;;;;;5041017;28;20052;-73
2023/01/17 09:23:26;;;;;;;7.25;4.03;;;11.40;1.00;;;;;;5025288;28;20099;-73
2023/01/17 09:25:54;;;;;;;7.43;4.07;;;11.40;1.00;;;;;;5023367;28;20053;-74
2023/01/17 09:28:21;;;;;;;14.20;7.47;;;11.30;1.00;;;;;;5041613;28;20054;-73
2023/01/17 09:30:49;;;;;;;10.18;6.78;;;11.40;1.00;;;;;;5040262;28;20534;-72
2023/01/17 09:33:17;;;;;;;20.48;10.52;;;11.50;1.00;;;;;;5042147;28;20111;-73
2023/01/17 09:35:47;;;;;;;18.70;10.98;;;11.40;1.00;;;;;;5042791;28;20141;-73
2023/01/17 09:38:15;;;;;;;22.17;12.32;;;11.40;1.00;;;;;;5043133;28;20377;-72
2023/01/17 09:40:45;;;;;;;15.75;9.25;;;11.50;1.00;;;;;;5040737;28;20045;-73
2023/01/17 09:43:22;;;;;;;15.93;8.77;;;11.40;1.00;;;;;;5040461;28;20045;-73
2023/01/17 09:45:50;;;;;;;18.83;10.68;;;11.40;1.00;;;;;;5040772;28;20440;-73
2023/01/17 09:48:25;;;;;;;14.20;8.88;;;11.40;1.00;;;;;;5041539;28;20397;-73
2023/01/17 09:51:00;;;;;;;19.60;11.30;;;11.40;1.00;;;;;;5041322;28;20045;-73
2023/01/17 09:53:31;;;;;;;17.27;9.18;;;11.50;1.00;;;;;;5040402;28;20034;-73
2023/01/17 09:56:04;;;;;;;14.98;9.23;;;11.50;1.00;;;;;;5038421;28;20061;-72
2023/01/17 09:58:39;;;;;;;17.27;9.57;;;11.70;1.00;;;;;;5041350;28;20095;-72
2023/01/17 10:01:13;;;;;;;14.98;8.43;;;11.60;1.00;;;;;;5039487;28;20042;-74
2023/01/17 10:03:55;;;;;;;13.48;7.88;;;11.70;1.00;;;;;;5039573;28;20048;-73
2023/01/17 10:06:48;;;;;;;13.93;8.07;;;11.80;1.00;;;;;;5041066;28;20047;-73
2023/01/17 10:09:42;;;;;;;16.33;9.82;;;11.80;1.00;;;;;;5039978;28;20057;-74
2023/01/17 10:12:21;;;;;;;15.27;8.95;;;11.80;1.00;;;;;;5040068;28;20045;-73
2023/01/17 10:15:05;;;;;;;15.35;8.98;;;11.80;1.00;;;;;;5039012;28;20053;-73
2023/01/17 10:17:45;;;;;;;13.13;7.95;;;11.80;1.00;;;;;;5023953;28;20055;-74
2023/01/17 10:20:45;;;;;;;14.75;8.13;;;11.60;1.00;;;;;;5040080;28;20274;-73
2023/01/17 10:23:42;;;;;;;16.67;9.98;;;11.60;1.00;;;;;;5040840;28;20037;-72
2023/01/17 10:26:12;;;;;;;16.88;10.32;;;11.80;1.00;;;;;;5039722;28;20543;-73
2023/01/17 10:28:47;;;;;;;20.33;11.90;;;12.00;1.00;;;;;;5038953;28;20033;-73
2023/01/17 10:31:22;;;;;;;20.23;10.13;;;12.30;1.00;;;;;;5040934;28;20041;-73
2023/01/17 10:33:51;;;;;;;13.63;8.88;;;12.40;1.00;;;;;;5039181;28;20048;-72
2023/01/17 10:36:21;;;;;;;14.05;7.50;;;12.60;1.00;;;;;;5038244;28;20042;-72
2023/01/17 10:38:53;;;;;;;16.35;9.05;;;12.70;1.00;;;;;;5040051;28;20044;-73
2023/01/17 10:41:26;;;;;;;17.23;10.52;;;12.90;1.00;;;;;;5020594;28;20573;-72
2023/01/17 10:44:01;;;;;;;20.02;11.77;;;13.00;1.00;;;;;;5037572;28;20072;-72
2023/01/17 10:46:36;;;;;;;13.93;7.78;;;13.20;1.00;;;;;;5038256;28;20030;-71
2023/01/17 10:49:03;;;;;;;14.40;8.93;;;13.10;1.00;;;;;;5039131;28;20045;-72
2023/01/17 10:51:58;;;;;;;14.75;9.63;;;13.10;1.00;;;;;;5038388;28;20362;-71
2023/01/17 10:54:43;;;;;;;19.75;11.23;;;12.90;1.00;;;;;;5038160;28;20029;-72
2023/01/17 10:57:15;;;;;;;16.20;8.35;;;12.90;1.00;;;;;;5037761;28;20045;-72
2023/01/17 10:59:42;;;;;;;12.50;5.68;;;12.90;1.00;;;;;;5038883;28;20044;-71
2023/01/17 11:02:20;;;;;;;10.13;6.05;;;12.90;1.00;;;;;;5043323;28;20378;-73
2023/01/17 11:04:53;;;;;;;9.63;6.07;;;12.70;1.00;;;;;;5022977;28;20041;-73
2023/01/17 11:07:22;;;;;;;10.20;4.68;;;12.60;1.00;;;;;;5039750;28;20040;-73
2023/01/17 11:09:53;;;;;;;13.23;7.55;;;12.50;1.00;;;;;;5038210;28;20037;-72
2023/01/17 11:12:27;;;;;;;10.45;4.88;;;12.40;1.00;;;;;;5020061;28;20405;-76
2023/01/17 11:15:02;;;;;;;11.27;6.00;;;12.40;1.00;;;;;;5038601;28;20141;-76
2023/01/17 11:17:31;;;;;;;14.27;7.53;;;12.40;1.00;;;;;;5041047;28;20523;-72
2023/01/17 11:20:19;;;;;;;16.90;8.38;;;12.40;1.00;;;;;;5035229;28;20424;-77
2023/01/17 11:23:02;;;;;;;16.00;8.65;;;12.40;1.00;;;;;;5038672;28;20484;-77
2023/01/17 11:25:34;;;;;;;19.10;10.98;;;12.50;1.00;;;;;;5051243;28;20041;-76
2023/01/17 11:28:04;;;;;;;20.00;10.43;;;12.80;1.00;;;;;;5067571;28;20059;-75
2023/01/17 11:30:31;;;;;;;14.02;7.88;;;13.00;1.00;;;;;;5049295;28;20051;-78
2023/01/17 11:33:00;;;;;;;13.10;7.38;;;13.20;1.00;;;;;;5039628;28;20045;-74
2023/01/17 11:35:30;;;;;;;9.38;4.93;;;13.60;1.00;;;;;;5039502;28;20311;-76
2023/01/17 11:38:03;;;;;;;13.75;5.10;;;13.70;1.00;;;;;;5040557;28;20047;-73
2023/01/17 11:40:35;;;;;;;11.30;5.45;;;13.30;1.00;;;;;;5039871;28;20041;-76
2023/01/17 11:43:18;;;;;;;10.07;4.50;;;13.30;1.00;;;;;;5038745;28;20046;-77
2023/01/17 11:45:47;;;;;;;7.50;3.30;;;13.70;1.00;;;;;;5034286;28;20034;-76
2023/01/17 11:48:17;;;;;;;7.25;3.75;;;14.00;1.00;;;;;;5038110;28;20148;-73
2023/01/17 11:50:47;;;;;;;7.75;3.40;;;14.00;1.00;;;;;;5018152;28;20129;-72
2023/01/17 11:53:23;;;;;;;5.13;2.53;;;14.10;1.00;;;;;;4989546;28;20383;-72
2023/01/17 11:55:56;;;;;;;;;;;14.00;1.00;;;;;;4988148;28;20065;-74
2023/01/17 11:58:25;;;;;;;8.75;3.88;;;13.90;1.00;;;;;;4989256;28;19922;-78
2023/01/17 12:01:01;;;;;;;8.10;4.65;;;13.90;1.00;;;;;;4987965;28;20457;-76
2023/01/17 12:03:50;;;;;;;8.95;4.45;;;13.90;1.00;;;;;;4989820;28;20084;-75
2023/01/17 12:06:29;;;;;;;9.35;3.80;;;13.90;1.00;;;;;;4991242;28;20410;-81
2023/01/17 12:09:08;;;;;;;6.45;3.53;;;13.80;1.00;;;;;;4991816;28;20034;-73
2023/01/17 12:13:59;;;;;;;8.00;3.50;;;13.90;1.00;;;;;;4992697;28;20046;-72
2023/01/17 12:14:42;;;;;;;6.93;2.85;;;13.90;1.00;;;;;;4991455;28;20498;-72
2023/01/17 12:17:21;;;;;;;10.95;4.07;;;13.90;1.00;;;;;;4993052;28;20054;-73
2023/01/17 12:20:00;;;;;;;8.73;3.10;;;13.70;1.00;;;;;;4990183;28;20097;-73
2023/01/17 12:22:56;;;;;;;7.20;4.40;;;13.70;1.00;;;;;;4986429;28;20574;-71
2023/01/17 12:25:56;;;;;;;8.35;4.72;;;13.60;1.00;;;;;;4992885;28;20655;-71
2023/01/17 12:28:45;;;;;;;7.85;4.40;;;13.70;1.00;;;;;;4992881;28;20161;-73
2023/01/17 12:31:24;;;;;;;11.13;5.10;;;13.70;1.00;;;;;;4995649;28;20054;-71
2023/01/17 12:33:56;;;;;;;10.27;4.45;;;13.70;1.00;;;;;;4991251;28;20110;-73
2023/01/17 12:36:36;;;;;;;12.25;6.82;;;13.50;1.00;;;;;;4993685;28;20046;-72
2023/01/17 12:39:06;;;;;;;13.00;5.88;;;13.50;1.00;;;;;;4992651;28;20053;-72
2023/01/17 12:41:37;;;;;;;10.38;5.57;;;13.40;1.00;;;;;;4992583;28;20506;-72
2023/01/17 12:44:10;;;;;;;12.30;6.65;;;13.40;1.00;;;;;;4990741;28;20042;-71
2023/01/17 12:46:43;;;;;;;14.43;7.40;;;13.50;1.00;;;;;;4994101;28;20409;-74
2023/01/17 12:49:22;;;;;;;10.73;6.00;;;13.60;1.00;;;;;;4995235;28;20038;-72
2023/01/17 12:51:55;;;;;;;8.98;4.80;;;13.60;1.00;;;;;;4993827;28;20043;-72
2023/01/17 12:54:29;;;;;;;9.63;5.55;;;13.70;1.00;;;;;;4990242;28;20031;-71
2023/01/17 12:57:02;;;;;;;8.18;5.07;;;13.80;1.00;;;;;;4993261;28;20505;-71
2023/01/17 12:59:37;;;;;;;10.25;5.50;;;13.80;1.00;;;;;;4988857;28;20038;-72
2023/01/17 13:02:15;;;;;;;9.27;5.35;;;13.90;1.00;;;;;;4988342;28;20042;-72
2023/01/17 13:04:47;;;;;;;8.20;4.70;;;13.90;1.00;;;;;;4989050;28;20265;-73
2023/01/17 13:07:23;;;;;;;10.07;5.65;;;14.00;1.00;;;;;;4991315;28;20041;-72
2023/01/17 13:09:55;;;;;;;14.77;7.35;;;13.90;1.00;;;;;;4988303;28;20047;-70
2023/01/17 13:12:31;;;;;;;11.40;5.70;;;13.90;1.00;;;;;;4970561;28;20054;-72
2023/01/17 13:15:01;;;;;;;9.52;4.78;;;13.90;1.00;;;;;;4991703;28;20046;-72
2023/01/17 13:17:36;;;;;;;6.35;4.00;;;13.80;1.00;;;;;;4988515;28;20038;-72
2023/01/17 13:20:13;;;;;;;;;;;13.80;1.00;;;;;;4992246;28;20188;-71
2023/01/17 13:22:42;;;;;;;6.88;4.10;;;13.80;1.00;;;;;;4988157;28;19921;-72
2023/01/17 13:25:21;;;;;;;8.35;3.75;;;13.80;1.00;;;;;;4973975;28;20072;-72
2023/01/17 13:28:02;;;;;;;9.27;4.45;;;13.80;1.00;;;;;;4991568;28;20054;-72
2023/01/17 13:31:00;;;;;;;11.15;6.03;;;13.90;1.00;;;;;;4991675;28;20611;-73
2023/01/17 13:33:41;;;;;;;10.23;4.82;;;14.00;1.00;;;;;;4989566;28;20054;-72
2023/01/17 13:36:20;;;;;;;7.40;4.25;;;14.00;1.00;;;;;;4989386;28;20104;-72
2023/01/17 13:39:00;;;;;;;7.65;4.05;;;14.00;1.00;;;;;;4995343;28;20077;-71
2023/01/17 13:41:42;;;;;;;5.57;3.65;;;14.00;1.00;;;;;;4988673;28;20045;-73
2023/01/17 13:44:23;;;;;;;8.73;3.83;;;14.10;1.00;;;;;;4990891;28;20479;-72
2023/01/17 13:46:59;;;;;;;6.35;3.75;;;14.10;1.00;;;;;;4996037;28;20046;-74
2023/01/17 13:49:44;;;;;;;7.60;4.97;;;14.20;1.00;;;;;;4987704;28;20073;-72
2023/01/17 13:52:30;;;;;;;14.38;8.10;;;14.20;1.00;;;;;;4991016;28;20046;-70
2023/01/17 13:54:59;;;;;;;12.43;7.18;;;14.20;1.00;;;;;;4986055;28;20524;-72
2023/01/17 13:57:42;;;;;;;12.77;6.03;;;14.20;1.00;;;;;;4990470;28;20052;-72
2023/01/17 14:00:58;;;;;;;6.93;3.70;;;14.10;1.00;;;;;;4988845;28;20054;-71
2023/01/17 14:04:03;;;;;;;15.60;7.80;;;14.10;1.00;;;;;;4990339;28;20043;-72
2023/01/17 14:06:36;;;;;;;11.77;5.65;;;14.00;1.00;;;;;;4974060;28;20098;-72
2023/01/17 14:09:11;;;;;;;9.93;5.38;;;14.00;1.00;;;;;;4991339;28;20041;-72
2023/01/17 14:11:52;;;;;;;14.50;7.23;;;13.90;1.00;;;;;;4972577;28;20050;-72
2023/01/17 14:14:48;;;;;;;13.18;6.93;;;13.90;1.00;;;;;;4988300;28;20321;-71
2023/01/17 14:17:48;;;;;;;15.00;8.32;;;13.90;1.00;;;;;;4988517;28;20039;-72
2023/01/17 14:20:38;;;;;;;8.55;4.60;;;13.90;1.00;;;;;;4986025;28;20134;-72
2023/01/17 14:23:33;;;;;;;12.25;5.40;;;14.00;1.00;;;;;;4991809;28;20461;-72
2023/01/17 14:26:23;;;;;;;8.50;4.20;;;14.00;1.00;;;;;;4987993;28;20050;-71
2023/01/17 14:28:52;;;;;;;10.10;5.05;;;13.90;1.00;;;;;;4990351;28;20047;-71
2023/01/17 14:31:22;;;;;;;9.38;4.78;;;14.00;1.00;;;;;;4988127;28;20043;-71
2023/01/17 14:33:49;;;;;;;13.20;6.45;;;14.00;1.00;;;;;;4991513;28;20077;-71